Time;durP1;ratioP1;P1;durP2;ratioP2;P2;SDS_P1;SDS_P2;PMS_P1;PMS_P2;Temp;Humidity;BMP_temperature;BMP_pressure;BME280_temperature;BME280_humidity;BME280_pressure;Samples;Min_cycle;Max_cycle;Signal;HPM_P1;HPM_P2
2023/12/21 00:00:34;;;;;;;5.67;2.73;;;8.40;99.90;;;;;;4968269;28;20203;-74
2023/12/21 00:03:00;;;;;;;2.00;1.80;;;8.50;99.90;;;;;;4965689;28;20423;-73
2023/12/21 00:05:25;;;;;;;3.03;2.07;;;8.50;99.90;;;;;;4968896;28;20512;-74
2023/12/21 00:07:51;;;;;;;4.33;2.00;;;8.50;99.90;;;;;;4967852;28;20184;-73
2023/12/21 00:10:17;;;;;;;2.83;2.00;;;8.50;99.90;;;;;;4969413;28;20188;-73
2023/12/21 00:12:42;;;;;;;2.93;2.23;;;8.50;99.90;;;;;;4951056;28;20192;-71
2023/12/21 00:15:08;;;;;;;3.63;2.13;;;8.50;99.90;;;;;;4964387;28;20238;-74
2023/12/21 00:17:34;;;;;;;3.13;2.10;;;8.60;99.90;;;;;;4986228;28;20193;-74
2023/12/21 00:20:00;;;;;;;3.70;1.80;;;8.60;99.90;;;;;;4970955;28;20467;-73
2023/12/21 00:22:26;;;;;;;3.33;2.37;;;8.60;99.90;;;;;;4972359;28;20191;-74
2023/12/21 00:24:51;;;;;;;2.43;1.90;;;8.60;99.90;;;;;;4968033;28;20416;-76
2023/12/21 00:27:17;;;;;;;2.07;1.80;;;8.60;99.90;;;;;;4986775;28;20184;-74
2023/12/21 00:29:43;;;;;;;2.97;2.00;;;8.70;99.90;;;;;;4967456;28;20287;-73
2023/12/21 00:32:08;;;;;;;4.30;1.70;;;8.70;99.90;;;;;;4961519;29;20379;-74
2023/12/21 00:34:34;;;;;;;1.83;1.40;;;8.70;99.90;;;;;;4983671;28;20635;-74
2023/12/21 00:36:59;;;;;;;3.90;1.80;;;8.70;99.90;;;;;;4968469;28;20192;-72
2023/12/21 00:39:25;;;;;;;1.63;1.20;;;8.80;99.90;;;;;;4967325;28;20477;-75
2023/12/21 00:41:51;;;;;;;2.17;1.30;;;8.80;99.90;;;;;;4985595;28;20173;-73
2023/12/21 00:44:16;;;;;;;2.90;1.23;;;8.80;99.90;;;;;;4966817;28;20200;-74
2023/12/21 00:46:42;;;;;;;1.50;1.30;;;8.70;99.90;;;;;;4967099;28;20204;-73
2023/12/21 00:49:07;;;;;;;1.57;1.37;;;8.80;99.90;;;;;;4964460;28;20196;-72
2023/12/21 00:51:33;;;;;;;2.37;1.60;;;8.80;99.90;;;;;;4965356;28;20188;-73
2023/12/21 00:53:59;;;;;;;3.93;1.50;;;8.80;99.90;;;;;;4965178;28;20227;-73
2023/12/21 00:56:24;;;;;;;2.70;1.30;;;8.80;99.90;;;;;;4983928;28;20212;-74
2023/12/21 00:58:50;;;;;;;1.77;1.50;;;8.80;99.90;;;;;;4983881;28;20415;-74
2023/12/21 01:01:16;;;;;;;2.07;1.67;;;8.80;99.90;;;;;;4983991;28;20180;-72
2023/12/21 01:03:41;;;;;;;2.80;1.80;;;8.80;99.90;;;;;;4979542;28;20180;-75
2023/12/21 01:06:07;;;;;;;2.80;2.43;;;8.80;99.90;;;;;;4984974;28;20239;-73
2023/12/21 01:08:32;;;;;;;3.33;1.97;;;8.80;99.90;;;;;;4983175;28;20207;-73
2023/12/21 01:11:00;;;;;;;2.40;2.20;;;8.90;99.90;;;;;;4950872;28;20234;-75
2023/12/21 01:13:25;;;;;;;3.10;2.00;;;8.90;99.90;;;;;;4950591;28;20290;-73
2023/12/21 01:15:52;;;;;;;2.50;2.30;;;8.90;99.90;;;;;;4967274;28;20447;-73
2023/12/21 01:18:18;;;;;;;2.63;2.43;;;8.80;99.90;;;;;;4982714;28;20199;-74
2023/12/21 01:20:43;;;;;;;3.00;1.80;;;8.80;99.90;;;;;;4972647;28;20462;-72
2023/12/21 01:23:09;;;;;;;3.23;1.87;;;8.80;99.90;;;;;;4986926;28;20763;-74
2023/12/21 01:25:35;;;;;;;2.50;2.07;;;8.80;99.90;;;;;;4968543;28;20220;-73
2023/12/21 01:28:00;;;;;;;2.80;1.90;;;8.70;99.90;;;;;;4969992;28;20192;-73
2023/12/21 01:30:27;;;;;;;3.23;1.90;;;8.80;99.90;;;;;;4983890;28;20510;-73
2023/12/21 01:32:53;;;;;;;2.63;2.20;;;8.80;99.90;;;;;;4959851;28;20189;-74
2023/12/21 01:35:19;;;;;;;5.80;3.17;;;8.80;99.90;;;;;;4989250;28;20462;-73
2023/12/21 01:37:44;;;;;;;4.50;2.70;;;8.80;99.90;;;;;;4986272;28;20192;-75
2023/12/21 01:40:11;;;;;;;5.10;3.30;;;8.80;99.90;;;;;;4970100;28;20173;-74
2023/12/21 01:42:37;;;;;;;4.53;2.77;;;8.80;99.90;;;;;;4986034;28;20455;-75
2023/12/21 01:45:02;;;;;;;4.10;2.73;;;8.80;99.90;;;;;;4968250;28;20444;-73
2023/12/21 01:47:28;;;;;;;4.57;3.17;;;8.80;99.90;;;;;;4976380;28;20197;-73
2023/12/21 01:49:54;;;;;;;4.40;2.90;;;8.80;99.90;;;;;;4964123;28;20196;-73
2023/12/21 01:52:20;;;;;;;5.07;2.53;;;8.80;99.90;;;;;;4946678;28;20435;-72
2023/12/21 01:54:46;;;;;;;3.00;2.23;;;8.80;99.90;;;;;;4979078;28;20518;-72
2023/12/21 01:57:12;;;;;;;6.13;2.70;;;8.80;99.90;;;;;;4979304;28;20435;-73
2023/12/21 01:59:38;;;;;;;3.10;2.57;;;8.80;99.90;;;;;;4962415;28;20191;-75
2023/12/21 02:02:04;;;;;;;3.40;2.17;;;8.80;99.90;;;;;;4979127;28;20490;-72
2023/12/21 02:04:29;;;;;;;2.37;1.93;;;8.80;99.90;;;;;;4976233;28;20415;-72
2023/12/21 02:06:55;;;;;;;3.00;2.20;;;8.80;99.90;;;;;;4975533;28;20228;-72
2023/12/21 02:09:21;;;;;;;2.93;1.83;;;8.80;99.90;;;;;;4961887;28;20595;-72
2023/12/21 02:11:46;;;;;;;3.10;2.47;;;8.80;99.90;;;;;;4978872;28;20219;-73
2023/12/21 02:14:12;;;;;;;2.93;2.20;;;8.80;99.90;;;;;;4979060;28;20200;-72
2023/12/21 02:16:54;;;;;;;5.90;1.90;;;8.90;99.90;;;;;;4975192;28;20224;-71
2023/12/21 02:19:20;;;;;;;2.60;1.80;;;8.90;99.90;;;;;;4978069;28;20487;-72
2023/12/21 02:21:47;;;;;;;2.90;2.20;;;8.90;99.90;;;;;;4980095;28;20459;-73
2023/12/21 02:24:14;;;;;;;4.97;2.27;;;8.90;99.90;;;;;;4978707;28;20715;-73
2023/12/21 02:26:40;;;;;;;2.37;2.00;;;8.90;99.90;;;;;;4961439;28;20705;-74
2023/12/21 02:29:06;;;;;;;2.17;1.97;;;8.90;99.90;;;;;;4961696;28;20435;-73
2023/12/21 02:31:32;;;;;;;3.20;2.03;;;8.90;99.90;;;;;;4980495;28;20462;-73
2023/12/21 02:33:57;;;;;;;4.20;2.50;;;8.90;99.90;;;;;;4973371;28;20518;-74
2023/12/21 02:36:23;;;;;;;2.13;1.93;;;9.00;99.90;;;;;;4978559;28;20306;-72
2023/12/21 02:38:48;;;;;;;3.20;2.30;;;9.00;99.90;;;;;;4961857;28;20200;-74
2023/12/21 02:41:14;;;;;;;3.13;2.23;;;9.00;99.90;;;;;;4978686;28;20227;-74
2023/12/21 02:43:39;;;;;;;3.13;2.30;;;9.00;99.90;;;;;;4979298;28;20212;-73
2023/12/21 02:46:05;;;;;;;3.43;2.33;;;9.00;99.90;;;;;;4961413;28;20330;-72
2023/12/21 02:48:30;;;;;;;2.47;1.80;;;9.00;99.90;;;;;;4971042;28;20185;-73
2023/12/21 02:50:56;;;;;;;3.40;2.07;;;9.00;99.90;;;;;;4971395;28;20280;-72
2023/12/21 02:53:22;;;;;;;2.23;1.70;;;9.00;99.90;;;;;;4978321;28;20529;-73
2023/12/21 02:55:47;;;;;;;2.00;1.60;;;8.90;99.90;;;;;;4977998;28;20236;-72
2023/12/21 02:58:13;;;;;;;3.20;1.80;;;8.90;99.90;;;;;;4978591;28;20193;-73
2023/12/21 03:00:39;;;;;;;2.50;2.07;;;8.90;99.90;;;;;;4978217;28;20191;-73
2023/12/21 03:03:04;;;;;;;4.13;2.27;;;8.90;99.90;;;;;;4977799;28;20485;-73
2023/12/21 03:05:30;;;;;;;5.20;1.80;;;8.80;99.90;;;;;;4961088;28;20236;-72
2023/12/21 03:07:55;;;;;;;2.07;1.60;;;8.90;99.90;;;;;;4972013;28;20201;-73
2023/12/21 03:10:21;;;;;;;4.33;1.87;;;8.80;99.90;;;;;;4977476;28;20235;-72
2023/12/21 03:12:46;;;;;;;4.13;1.70;;;8.80;99.90;;;;;;4956788;28;20215;-73
2023/12/21 03:15:12;;;;;;;5.30;1.73;;;8.80;99.90;;;;;;4975680;28;20246;-72
2023/12/21 03:17:38;;;;;;;2.47;1.57;;;8.80;99.90;;;;;;4945953;28;20256;-72
2023/12/21 03:20:03;;;;;;;2.60;2.10;;;8.80;99.90;;;;;;4958994;28;20220;-73
2023/12/21 03:22:29;;;;;;;3.40;2.27;;;8.80;99.90;;;;;;4977937;28;20207;-72
2023/12/21 03:24:55;;;;;;;2.73;2.40;;;8.80;99.90;;;;;;4978466;28;20223;-73
2023/12/21 03:27:21;;;;;;;2.80;2.13;;;8.80;99.90;;;;;;4977436;28;20188;-72
2023/12/21 03:29:46;;;;;;;2.30;2.10;;;8.80;99.90;;;;;;4977756;28;20520;-74
2023/12/21 03:32:12;;;;;;;2.90;2.60;;;8.80;99.90;;;;;;4978587;28;20203;-73
2023/12/21 03:34:37;;;;;;;3.60;1.97;;;8.80;99.90;;;;;;4955220;28;20317;-74
2023/12/21 03:37:03;;;;;;;2.73;2.20;;;8.70;99.90;;;;;;4977020;28;20252;-73
2023/12/21 03:39:28;;;;;;;3.30;2.30;;;8.70;99.90;;;;;;4977259;28;20195;-73
2023/12/21 03:41:54;;;;;;;4.30;2.40;;;8.70;99.90;;;;;;4959047;28;20303;-73
2023/12/21 03:44:20;;;;;;;3.87;2.87;;;8.80;99.90;;;;;;4972432;28;20484;-72
2023/12/21 03:46:46;;;;;;;3.97;2.93;;;8.70;99.90;;;;;;4976672;28;20216;-72
2023/12/21 03:49:11;;;;;;;3.80;3.03;;;8.80;99.90;;;;;;4971776;28;20901;-73
2023/12/21 03:51:37;;;;;;;3.07;2.70;;;8.80;99.90;;;;;;4973497;28;20482;-74
2023/12/21 03:54:02;;;;;;;2.80;2.50;;;8.80;99.90;;;;;;4976696;28;20448;-74
2023/12/21 03:56:28;;;;;;;7.87;3.10;;;8.80;99.90;;;;;;4977390;28;20492;-73
2023/12/21 03:58:53;;;;;;;2.80;2.33;;;8.80;99.90;;;;;;4977431;28;20200;-73
2023/12/21 04:01:24;;;;;;;3.47;2.40;;;8.80;99.90;;;;;;4959854;28;20359;-72
2023/12/21 04:03:49;;;;;;;5.60;2.57;;;8.80;99.90;;;;;;4973123;28;20204;-73
2023/12/21 04:06:15;;;;;;;3.40;2.37;;;8.80;99.90;;;;;;4976837;28;20621;-73
2023/12/21 04:08:40;;;;;;;2.80;1.93;;;8.80;99.90;;;;;;4974569;28;20200;-72
2023/12/21 04:11:06;;;;;;;4.10;2.30;;;8.80;99.90;;;;;;4976691;28;20187;-72
2023/12/21 04:13:31;;;;;;;4.10;1.90;;;8.80;99.90;;;;;;4977566;28;20302;-73
2023/12/21 04:15:57;;;;;;;2.40;1.90;;;8.80;99.90;;;;;;4976914;28;20213;-72
2023/12/21 04:18:23;;;;;;;2.50;1.80;;;8.80;99.90;;;;;;4968111;28;20247;-74
2023/12/21 04:20:48;;;;;;;2.07;1.60;;;8.80;99.90;;;;;;4959975;28;20302;-73
2023/12/21 04:23:14;;;;;;;1.90;1.57;;;8.80;99.90;;;;;;4976633;28;20201;-73
2023/12/21 04:25:39;;;;;;;2.00;1.80;;;8.80;99.90;;;;;;4976520;28;20502;-74
2023/12/21 04:28:05;;;;;;;2.63;1.90;;;8.70;99.90;;;;;;4959485;28;20189;-73
2023/12/21 04:30:31;;;;;;;2.37;2.17;;;8.70;99.90;;;;;;4977184;28;20211;-75
2023/12/21 04:32:56;;;;;;;2.30;1.87;;;8.70;99.90;;;;;;4975619;28;20192;-73
2023/12/21 04:35:22;;;;;;;5.10;2.00;;;8.70;99.90;;;;;;4973774;28;20628;-73
2023/12/21 04:37:47;;;;;;;4.80;1.70;;;8.70;99.90;;;;;;4976651;28;20287;-72
2023/12/21 04:40:13;;;;;;;1.93;1.63;;;8.70;99.90;;;;;;4977722;28;20694;-73
2023/12/21 04:42:38;;;;;;;2.20;2.00;;;8.70;99.90;;;;;;4960810;28;20203;-74
2023/12/21 04:45:04;;;;;;;1.93;1.60;;;8.70;99.90;;;;;;4978060;28;20530;-73
2023/12/21 04:47:30;;;;;;;2.73;2.00;;;8.70;99.90;;;;;;4974987;28;20197;-73
2023/12/21 04:49:56;;;;;;;2.90;2.40;;;8.70;99.90;;;;;;4976504;28;20427;-73
2023/12/21 04:52:21;;;;;;;2.53;2.00;;;8.70;99.90;;;;;;4976034;28;20275;-75
2023/12/21 04:54:47;;;;;;;5.00;2.23;;;8.70;99.90;;;;;;4973875;28;20231;-73
2023/12/21 04:57:12;;;;;;;2.23;1.80;;;8.70;99.90;;;;;;4976605;28;20181;-74
2023/12/21 04:59:42;;;;;;;2.80;2.07;;;8.70;99.90;;;;;;4976910;28;20250;-74
2023/12/21 05:02:07;;;;;;;2.70;2.10;;;8.70;99.90;;;;;;4981274;28;20191;-74
2023/12/21 05:04:33;;;;;;;3.67;2.70;;;8.60;99.90;;;;;;4980968;28;20424;-72
2023/12/21 05:06:59;;;;;;;4.43;2.50;;;8.60;99.90;;;;;;4981383;28;20676;-77
2023/12/21 05:09:24;;;;;;;3.23;2.40;;;8.60;99.90;;;;;;4964471;28;20207;-73
2023/12/21 05:11:50;;;;;;;5.00;3.00;;;8.60;99.90;;;;;;4960007;28;20196;-75
2023/12/21 05:14:15;;;;;;;3.03;2.60;;;8.70;99.90;;;;;;4982085;28;20212;-74
2023/12/21 05:16:41;;;;;;;4.20;3.00;;;8.70;99.90;;;;;;4982415;28;20219;-73
2023/12/21 05:19:07;;;;;;;3.23;2.87;;;8.70;99.90;;;;;;4969107;28;20233;-73
2023/12/21 05:21:32;;;;;;;4.03;2.50;;;8.60;99.90;;;;;;4965104;28;20678;-74
2023/12/21 05:23:58;;;;;;;4.30;3.47;;;8.70;99.90;;;;;;4981851;28;20181;-74
2023/12/21 05:26:23;;;;;;;4.77;3.37;;;8.60;99.90;;;;;;4981785;28;20240;-72
2023/12/21 05:28:49;;;;;;;5.13;3.40;;;8.60;99.90;;;;;;4949559;28;20180;-74
2023/12/21 05:31:22;;;;;;;4.33;3.30;;;8.70;99.90;;;;;;4982565;28;20205;-74
2023/12/21 05:33:48;;;;;;;4.10;2.70;;;8.70;99.90;;;;;;4962209;28;20224;-73
2023/12/21 05:36:24;;;;;;;4.27;3.07;;;8.70;99.90;;;;;;4983160;28;20918;-75
2023/12/21 05:38:50;;;;;;;3.73;2.50;;;8.70;99.90;;;;;;4982549;28;20206;-74
2023/12/21 05:41:16;;;;;;;8.27;2.80;;;8.70;99.90;;;;;;4965789;28;20411;-75
2023/12/21 05:43:43;;;;;;;5.00;2.67;;;8.70;99.90;;;;;;4982528;28;20424;-73
2023/12/21 05:46:09;;;;;;;5.27;2.53;;;8.70;99.90;;;;;;4983105;28;20812;-75
2023/12/21 05:48:34;;;;;;;5.70;2.70;;;8.70;99.90;;;;;;4966000;28;20727;-75
2023/12/21 05:51:00;;;;;;;5.70;3.53;;;8.80;99.90;;;;;;4965980;28;20427;-73
2023/12/21 05:53:30;;;;;;;7.37;4.30;;;8.80;99.90;;;;;;4982529;28;20279;-75
2023/12/21 05:55:56;;;;;;;6.30;3.37;;;8.80;99.90;;;;;;4980556;28;20450;-72
2023/12/21 05:58:22;;;;;;;5.33;3.60;;;8.70;99.90;;;;;;4966909;28;20455;-74
2023/12/21 06:00:47;;;;;;;4.47;3.27;;;8.70;99.90;;;;;;4983413;28;20705;-73
2023/12/21 06:03:13;;;;;;;5.77;3.70;;;8.80;99.90;;;;;;4976264;28;20193;-74
2023/12/21 06:05:38;;;;;;;7.67;3.97;;;8.80;99.90;;;;;;4968706;28;20252;-74
2023/12/21 06:08:04;;;;;;;6.13;3.90;;;8.80;99.90;;;;;;4986339;28;20184;-74
2023/12/21 06:10:30;;;;;;;7.53;3.47;;;8.80;99.90;;;;;;4969525;28;20473;-74
2023/12/21 06:12:55;;;;;;;13.73;4.10;;;8.80;99.90;;;;;;4987120;28;20660;-73
2023/12/21 06:15:21;;;;;;;9.03;3.80;;;8.80;99.90;;;;;;4950559;28;20228;-74
2023/12/21 06:17:47;;;;;;;10.63;4.13;;;8.70;99.90;;;;;;4983998;28;20528;-76
2023/12/21 06:20:13;;;;;;;5.70;3.83;;;8.80;99.90;;;;;;4966245;28;20515;-75
2023/12/21 06:22:38;;;;;;;5.73;2.83;;;8.80;99.90;;;;;;4971114;28;20196;-76
2023/12/21 06:25:04;;;;;;;5.33;3.23;;;8.80;99.90;;;;;;4971661;28;20223;-75
2023/12/21 06:27:30;;;;;;;9.87;3.30;;;8.80;99.90;;;;;;4956045;28;20252;-74
2023/12/21 06:29:56;;;;;;;10.30;3.70;;;8.80;99.90;;;;;;4987466;28;20430;-77
2023/12/21 06:32:22;;;;;;;8.00;3.93;;;8.80;99.90;;;;;;4987642;28;20185;-74
2023/12/21 06:34:48;;;;;;;6.43;3.83;;;8.90;99.90;;;;;;4986271;28;20315;-73
2023/12/21 06:37:13;;;;;;;10.60;3.70;;;8.80;99.90;;;;;;4949346;28;20416;-74
2023/12/21 06:39:39;;;;;;;4.20;3.07;;;8.80;99.90;;;;;;4970470;28;20201;-74
2023/12/21 06:42:05;;;;;;;13.70;3.80;;;8.80;99.90;;;;;;4988168;28;20472;-74
2023/12/21 06:44:31;;;;;;;9.17;3.33;;;8.90;99.90;;;;;;4970592;28;20438;-76
2023/12/21 06:46:57;;;;;;;6.93;3.10;;;8.90;99.90;;;;;;4970194;28;20486;-76
2023/12/21 06:49:22;;;;;;;7.10;3.23;;;8.90;99.90;;;;;;4958963;28;20199;-75
2023/12/21 06:51:48;;;;;;;4.80;4.00;;;9.00;99.90;;;;;;4969579;28;20258;-75
2023/12/21 06:54:14;;;;;;;9.37;4.47;;;8.90;99.90;;;;;;4966408;28;20208;-76
2023/12/21 06:56:39;;;;;;;5.13;3.57;;;8.90;99.90;;;;;;4967892;28;20285;-74
2023/12/21 06:59:05;;;;;;;13.80;4.17;;;8.90;99.90;;;;;;4970048;28;20435;-75
2023/12/21 07:01:31;;;;;;;8.90;4.40;;;8.90;99.90;;;;;;4952175;28;20212;-75
2023/12/21 07:03:57;;;;;;;7.17;3.90;;;8.90;99.90;;;;;;4965325;28;20196;-75
2023/12/21 07:06:25;;;;;;;7.80;4.07;;;8.90;99.90;;;;;;4986708;28;20655;-75
2023/12/21 07:08:51;;;;;;;7.43;4.10;;;8.80;99.90;;;;;;4986650;28;20491;-75
2023/12/21 07:11:17;;;;;;;9.23;3.93;;;8.90;99.90;;;;;;4967737;28;20510;-74
2023/12/21 07:13:43;;;;;;;8.23;4.70;;;9.00;99.90;;;;;;4960554;28;20930;-74
2023/12/21 07:16:10;;;;;;;12.50;4.40;;;9.00;99.90;;;;;;4985483;28;20456;-77
2023/12/21 07:18:35;;;;;;;10.43;4.63;;;9.00;99.90;;;;;;4980615;28;20424;-75
2023/12/21 07:21:02;;;;;;;8.37;3.60;;;8.90;99.90;;;;;;4970745;28;20499;-75
2023/12/21 07:23:28;;;;;;;8.93;4.20;;;8.90;99.90;;;;;;4972102;28;20219;-76
2023/12/21 07:25:53;;;;;;;9.20;4.00;;;8.90;99.90;;;;;;4970136;28;20444;-76
2023/12/21 07:28:19;;;;;;;11.40;5.27;;;8.90;99.90;;;;;;4971591;28;20193;-78
2023/12/21 07:30:45;;;;;;;9.00;4.13;;;8.90;99.90;;;;;;4969811;28;20239;-77
2023/12/21 07:33:11;;;;;;;8.17;3.83;;;9.00;99.90;;;;;;4986432;28;20212;-75
2023/12/21 07:35:37;;;;;;;13.13;5.17;;;9.00;99.90;;;;;;4988753;28;20233;-75
2023/12/21 07:38:03;;;;;;;12.57;4.20;;;9.00;99.90;;;;;;4972663;28;20407;-74
2023/12/21 07:40:28;;;;;;;10.00;4.00;;;9.00;99.90;;;;;;4973706;28;20416;-75
2023/12/21 07:42:55;;;;;;;9.50;3.93;;;9.00;99.90;;;;;;4955876;28;20192;-74
2023/12/21 07:45:20;;;;;;;10.33;5.03;;;9.00;99.90;;;;;;4987596;28;20302;-76
2023/12/21 07:47:46;;;;;;;17.50;4.53;;;9.00;99.90;;;;;;4971260;28;20432;-76
2023/12/21 07:50:13;;;;;;;16.27;5.10;;;9.00;99.90;;;;;;4967173;28;20196;-76
2023/12/21 07:52:38;;;;;;;11.33;4.27;;;9.00;99.90;;;;;;4955749;28;20192;-75
2023/12/21 07:55:06;;;;;;;11.30;4.13;;;9.00;99.90;;;;;;4990326;28;20472;-76
2023/12/21 07:57:32;;;;;;;12.70;4.30;;;9.00;99.90;;;;;;4973246;28;20186;-75
2023/12/21 07:59:58;;;;;;;9.23;3.83;;;9.00;99.90;;;;;;4955199;28;20495;-76
2023/12/21 08:02:23;;;;;;;14.03;4.70;;;9.00;99.90;;;;;;4969119;28;20412;-75
2023/12/21 08:04:50;;;;;;;7.83;4.30;;;9.10;99.90;;;;;;4989064;28;20315;-75
2023/12/21 08:07:16;;;;;;;7.57;4.10;;;9.10;99.90;;;;;;4954809;28;20208;-75
2023/12/21 08:09:42;;;;;;;15.20;5.50;;;9.10;99.90;;;;;;4969492;28;20428;-75
2023/12/21 08:12:08;;;;;;;11.63;4.93;;;9.20;99.90;;;;;;4986699;28;20192;-75
2023/12/21 08:14:37;;;;;;;12.10;5.10;;;9.10;99.90;;;;;;4982871;28;20907;-75
2023/12/21 08:17:07;;;;;;;15.70;5.60;;;9.20;99.90;;;;;;4955919;28;20483;-76
2023/12/21 08:19:33;;;;;;;14.70;5.20;;;9.20;99.90;;;;;;4962722;28;20432;-75
2023/12/21 08:21:59;;;;;;;12.57;4.13;;;9.10;99.90;;;;;;4969337;28;20416;-74
2023/12/21 08:24:24;;;;;;;15.40;5.50;;;9.10;99.90;;;;;;4971360;28;20824;-76
2023/12/21 08:26:50;;;;;;;10.83;4.53;;;9.20;99.90;;;;;;4970988;28;20292;-77
2023/12/21 08:29:16;;;;;;;16.53;4.80;;;9.20;99.90;;;;;;4959423;28;20196;-78
2023/12/21 08:31:41;;;;;;;13.47;4.20;;;9.10;99.90;;;;;;4946622;28;20192;-75
2023/12/21 08:34:07;;;;;;;15.37;7.10;;;9.10;99.90;;;;;;4980479;28;20287;-76
2023/12/21 08:36:33;;;;;;;10.20;4.00;;;9.10;99.90;;;;;;4984732;28;20211;-77
2023/12/21 08:38:58;;;;;;;11.63;3.80;;;9.20;99.90;;;;;;4968647;28;20180;-75
2023/12/21 08:41:26;;;;;;;10.63;4.10;;;9.20;99.90;;;;;;4986477;28;20184;-75
2023/12/21 08:43:51;;;;;;;9.43;3.33;;;9.30;99.90;;;;;;4974127;28;20741;-77
2023/12/21 08:46:18;;;;;;;8.57;4.30;;;9.30;99.90;;;;;;4980105;28;20471;-76
2023/12/21 08:48:43;;;;;;;8.00;3.60;;;9.20;99.90;;;;;;4954040;29;20424;-76
2023/12/21 08:51:09;;;;;;;8.50;3.60;;;9.20;99.90;;;;;;4986104;28;20415;-76
2023/12/21 08:53:35;;;;;;;8.97;3.93;;;9.30;99.90;;;;;;4972267;28;20220;-76
2023/12/21 08:56:02;;;;;;;10.13;3.33;;;9.30;99.90;;;;;;4990969;28;20219;-77
2023/12/21 08:58:28;;;;;;;14.53;3.80;;;9.30;99.90;;;;;;4982869;28;20195;-77
2023/12/21 09:00:55;;;;;;;6.63;2.70;;;9.40;99.90;;;;;;4969647;28;20419;-75
2023/12/21 09:03:21;;;;;;;8.73;3.03;;;9.30;99.90;;;;;;4961345;28;20180;-75
2023/12/21 09:05:47;;;;;;;7.73;3.07;;;9.40;99.90;;;;;;4970254;28;20506;-75
2023/12/21 09:08:12;;;;;;;7.53;3.23;;;9.40;99.90;;;;;;4953194;28;20188;-75
2023/12/21 09:10:38;;;;;;;5.60;3.00;;;9.40;99.90;;;;;;4987939;28;20199;-77
2023/12/21 09:13:04;;;;;;;5.70;3.10;;;9.40;99.90;;;;;;4949819;28;20196;-75
2023/12/21 09:15:29;;;;;;;7.87;2.90;;;9.50;99.90;;;;;;4970630;28;20239;-77
2023/12/21 09:17:55;;;;;;;8.47;2.47;;;9.40;99.90;;;;;;4973692;28;20223;-77
2023/12/21 09:20:21;;;;;;;5.90;2.70;;;9.50;99.90;;;;;;4988043;28;20173;-78
2023/12/21 09:22:47;;;;;;;6.13;3.10;;;9.50;99.90;;;;;;4968748;28;20200;-79
2023/12/21 09:25:13;;;;;;;6.93;2.80;;;9.40;99.90;;;;;;4961032;28;20212;-78
2023/12/21 09:27:39;;;;;;;7.30;2.90;;;9.40;99.90;;;;;;4973308;28;20420;-77
2023/12/21 09:30:05;;;;;;;4.50;3.03;;;9.40;99.90;;;;;;4949505;28;20480;-75
2023/12/21 09:32:32;;;;;;;8.53;3.90;;;9.40;99.90;;;;;;4965622;28;20204;-79
2023/12/21 09:35:01;;;;;;;6.17;2.87;;;9.40;99.90;;;;;;4942984;28;20484;-75
2023/12/21 09:37:27;;;;;;;6.67;4.20;;;9.40;99.90;;;;;;4988307;28;20415;-75
2023/12/21 09:39:53;;;;;;;6.50;3.30;;;9.40;99.90;;;;;;4959606;28;20184;-76
2023/12/21 09:42:21;;;;;;;8.97;3.80;;;9.40;99.90;;;;;;4959541;28;20200;-77
2023/12/21 09:44:47;;;;;;;9.67;3.20;;;9.40;99.90;;;;;;4959548;28;20423;-76
2023/12/21 09:47:16;;;;;;;6.13;3.13;;;9.40;99.90;;;;;;4964939;28;20454;-75
2023/12/21 09:49:44;;;;;;;6.33;3.00;;;9.50;99.90;;;;;;4955820;28;20436;-75
2023/12/21 09:52:12;;;;;;;10.63;5.87;;;9.50;99.90;;;;;;4976277;28;20404;-76
2023/12/21 09:54:42;;;;;;;5.83;2.80;;;9.50;99.90;;;;;;4978003;28;20455;-77
2023/12/21 09:57:10;;;;;;;9.97;4.03;;;9.50;99.90;;;;;;4977686;28;20442;-77
2023/12/21 09:59:36;;;;;;;9.77;4.80;;;9.50;99.90;;;;;;4977941;28;20408;-76
2023/12/21 10:02:11;;;;;;;10.87;4.50;;;9.40;99.90;;;;;;4974718;28;20463;-77
2023/12/21 10:04:44;;;;;;;5.80;3.27;;;9.40;99.90;;;;;;4950589;29;20493;-78
2023/12/21 10:07:11;;;;;;;3.63;3.00;;;9.40;99.90;;;;;;4885222;29;21273;-76
2023/12/21 10:09:38;;;;;;;5.40;2.60;;;9.40;99.90;;;;;;4904887;29;20456;-77
2023/12/21 10:12:04;;;;;;;5.43;2.60;;;9.40;99.90;;;;;;4890094;29;20750;-76
2023/12/21 10:14:31;;;;;;;3.30;2.10;;;9.40;99.90;;;;;;4884938;29;20527;-80
2023/12/21 10:16:58;;;;;;;6.33;3.33;;;9.40;99.90;;;;;;4899157;29;20468;-77
2023/12/21 10:19:25;;;;;;;8.27;6.27;;;9.50;99.90;;;;;;4904729;29;20512;-78
2023/12/21 10:21:51;;;;;;;3.03;2.23;;;9.40;99.90;;;;;;4874551;29;20483;-77
2023/12/21 10:24:17;;;;;;;3.20;1.97;;;9.40;99.90;;;;;;4920729;29;20443;-79
2023/12/21 10:26:44;;;;;;;3.13;1.70;;;9.50;99.90;;;;;;4885441;29;20483;-79
2023/12/21 10:29:17;;;;;;;4.20;2.13;;;9.50;99.90;;;;;;4895780;29;20424;-77
2023/12/21 10:31:44;;;;;;;5.60;2.30;;;9.50;99.90;;;;;;4917955;29;20435;-79
2023/12/21 10:34:13;;;;;;;4.43;2.20;;;9.50;99.90;;;;;;4887656;29;20463;-79
2023/12/21 10:36:44;;;;;;;1.63;1.40;;;9.50;99.90;;;;;;4943504;29;20486;-79
2023/12/21 10:39:15;;;;;;;7.90;1.90;;;9.60;99.90;;;;;;4934476;29;20456;-78
2023/12/21 10:41:45;;;;;;;3.30;2.37;;;9.60;99.90;;;;;;4928383;29;20449;-81
2023/12/21 10:44:12;;;;;;;2.17;1.63;;;9.50;99.90;;;;;;4940785;29;20429;-78
2023/12/21 10:46:39;;;;;;;4.20;1.60;;;9.60;99.90;;;;;;4953572;29;20456;-79
2023/12/21 10:49:06;;;;;;;4.30;2.17;;;9.60;99.90;;;;;;4927786;29;20410;-79
2023/12/21 10:51:37;;;;;;;2.67;2.00;;;9.60;99.90;;;;;;4942224;29;20422;-80
2023/12/21 10:54:08;;;;;;;3.93;2.33;;;9.60;99.90;;;;;;4974710;28;20496;-78
2023/12/21 10:56:38;;;;;;;2.27;1.97;;;9.60;99.90;;;;;;4926402;29;20462;-81
2023/12/21 10:59:11;;;;;;;4.77;2.30;;;9.60;99.90;;;;;;4902907;29;20490;-79
2023/12/21 11:01:40;;;;;;;3.33;2.27;;;9.60;99.90;;;;;;4913332;29;20402;-78
2023/12/21 11:04:14;;;;;;;3.87;2.40;;;9.60;99.90;;;;;;4930243;29;20429;-80
2023/12/21 11:06:49;;;;;;;3.47;2.43;;;9.60;99.90;;;;;;4942407;29;20477;-80
2023/12/21 11:09:19;;;;;;;5.97;2.40;;;9.60;99.90;;;;;;4947083;29;20425;-79
2023/12/21 11:11:46;;;;;;;4.80;2.80;;;9.60;99.90;;;;;;4935040;29;20432;-78
2023/12/21 11:14:12;;;;;;;7.90;2.60;;;9.60;99.90;;;;;;4931400;29;20499;-77
2023/12/21 11:16:50;;;;;;;5.47;3.00;;;9.60;99.90;;;;;;4943289;29;20462;-79
2023/12/21 11:19:29;;;;;;;3.13;2.40;;;9.60;99.90;;;;;;4943036;29;20424;-78
2023/12/21 11:22:18;;;;;;;3.73;2.80;;;9.60;99.90;;;;;;4926677;29;20461;-80
2023/12/21 11:24:44;;;;;;;7.00;2.50;;;9.60;99.90;;;;;;4927705;29;20435;-79
2023/12/21 11:27:31;;;;;;;4.40;2.70;;;9.60;99.90;;;;;;4944263;29;20433;-79
2023/12/21 11:30:15;;;;;;;5.80;4.10;;;9.60;99.90;;;;;;4925509;29;20506;-80
2023/12/21 11:33:02;;;;;;;5.57;3.93;;;9.70;99.90;;;;;;4930194;29;20430;-79
2023/12/21 11:35:31;;;;;;;5.40;3.77;;;9.80;99.90;;;;;;4944666;29;20488;-79
2023/12/21 11:41:32;;;;;;;5.80;3.80;;;9.80;99.90;;;;;;5252993;23;20608;-81
2023/12/21 11:44:14;;;;;;;8.03;4.97;;;9.80;99.90;;;;;;5093553;23;20577;-81
2023/12/21 11:49:25;;;;;;;8.47;4.50;;;9.90;99.90;;;;;;5180501;23;20460;-81
2023/12/21 11:52:44;;;;;;;8.70;4.90;;;9.90;99.90;;;;;;4966604;28;20496;-80
2023/12/21 11:55:33;;;;;;;6.70;4.37;;;9.90;99.90;;;;;;4919328;29;20486;-80
2023/12/21 11:58:07;;;;;;;6.83;3.80;;;9.90;99.90;;;;;;5039150;23;20498;-79
2023/12/21 12:01:25;;;;;;;9.50;6.03;;;9.90;99.90;;;;;;4655153;27;15036943;-78
2023/12/21 12:03:52;;;;;;;9.30;5.00;;;9.90;99.90;;;;;;5159605;27;20186;-78
2023/12/21 12:06:20;;;;;;;7.10;4.20;;;9.90;99.90;;;;;;5131951;28;20430;-80
2023/12/21 12:08:46;;;;;;;9.40;5.10;;;9.80;99.90;;;;;;5128412;27;20484;-80
2023/12/21 12:11:14;;;;;;;8.33;3.70;;;9.80;99.90;;;;;;5138467;27;20432;-81
2023/12/21 12:13:44;;;;;;;11.00;5.20;;;9.80;99.90;;;;;;5141848;27;20416;-81
2023/12/21 12:16:41;;;;;;;9.57;4.77;;;9.80;99.90;;;;;;5141648;27;20432;-79
2023/12/21 12:19:14;;;;;;;8.83;4.73;;;9.80;99.90;;;;;;5110676;28;20506;-81
2023/12/21 12:22:05;;;;;;;6.60;4.83;;;9.80;99.90;;;;;;5110695;28;20414;-82
2023/12/21 12:24:31;;;;;;;12.60;5.43;;;9.90;99.90;;;;;;5117633;28;20412;-82
2023/12/21 12:29:47;;;;;;;6.43;4.57;;;9.90;99.90;;;;;;4622092;26;20602;-80
2023/12/21 12:32:14;;;;;;;6.67;4.80;;;9.90;99.90;;;;;;5107579;28;20423;-79
2023/12/21 12:34:40;;;;;;;5.70;4.97;;;9.90;99.90;;;;;;5044574;28;20184;-79
2023/12/21 12:37:12;;;;;;;7.13;4.73;;;9.90;99.90;;;;;;5080183;28;20421;-80
2023/12/21 12:39:41;;;;;;;9.50;4.40;;;9.90;99.90;;;;;;5044349;28;20491;-80
2023/12/21 12:42:22;;;;;;;9.27;6.63;;;9.90;99.90;;;;;;5059621;28;20412;-79
2023/12/21 12:45:12;;;;;;;8.33;5.00;;;10.00;99.90;;;;;;5097446;28;20463;-81
2023/12/21 12:47:40;;;;;;;10.73;5.10;;;10.00;99.90;;;;;;5066511;28;20407;-80
2023/12/21 12:50:27;;;;;;;13.20;4.43;;;9.90;99.90;;;;;;5080958;28;20421;-80
2023/12/21 12:53:19;;;;;;;6.90;5.00;;;9.90;99.90;;;;;;5097423;28;20444;-80
2023/12/21 12:58:24;;;;;;;6.77;4.77;;;9.90;99.90;;;;;;5346373;22;20490;-80
2023/12/21 13:01:10;;;;;;;6.70;4.67;;;9.90;99.90;;;;;;5012442;28;20454;-79
2023/12/21 13:06:34;;;;;;;7.07;4.53;;;10.00;99.90;;;;;;5168705;22;20474;-81
2023/12/21 13:09:03;;;;;;;5.30;4.30;;;9.90;99.90;;;;;;5076310;28;20388;-79
2023/12/21 13:11:29;;;;;;;6.33;5.27;;;9.90;99.90;;;;;;5066136;28;20425;-81